Time;durP1;ratioP1;P1;durP2;ratioP2;P2;SDS_P1;SDS_P2;PMS_P1;PMS_P2;Temp;Humidity;BMP_temperature;BMP_pressure;BME280_temperature;BME280_humidity;BME280_pressure;Samples;Min_cycle;Max_cycle;Signal;HPM_P1;HPM_P2
2021/10/17 00:01:14;;;;;;;2.30;2.00;;;;;;;24.61;26.99;94431.66;5016731;28;20032;-83
2021/10/17 00:03:44;;;;;;;1.80;1.70;;;;;;;24.63;26.77;94439.38;5038060;28;20044;-83
2021/10/17 00:06:10;;;;;;;2.10;1.90;;;;;;;24.56;26.58;94429.88;5038523;28;20291;-83
2021/10/17 00:08:35;;;;;;;1.95;1.85;;;;;;;24.56;26.85;94437.84;5058179;28;20043;-83
2021/10/17 00:11:05;;;;;;;2.00;1.75;;;;;;;24.54;26.81;94434.69;5050953;28;20033;-83
2021/10/17 00:13:31;;;;;;;;;;;;;;;24.77;26.86;94442.94;5049658;28;20021;-83
2021/10/17 00:15:56;;;;;;;1.98;1.83;;;;;;;24.64;26.55;94440.97;5029918;28;20096;-83
2021/10/17 00:18:22;;;;;;;1.67;1.58;;;;;;;24.58;26.71;94433.03;5034309;28;20028;-83
2021/10/17 00:20:47;;;;;;;1.80;1.70;;;;;;;24.56;26.70;94437.84;5041029;28;20045;-83
2021/10/17 00:23:17;;;;;;;1.70;1.60;;;;;;;24.54;26.72;94436.53;5039234;28;20035;-83
2021/10/17 00:25:48;;;;;;;;;;;;;;;24.76;26.74;94436.00;5045173;28;20029;-83
2021/10/17 00:28:13;;;;;;;1.70;1.60;;;;;;;24.61;26.32;94431.66;5051247;28;19924;-83
2021/10/17 00:30:39;;;;;;;1.65;1.55;;;;;;;24.58;26.47;94427.72;5032118;28;20028;-83
2021/10/17 00:33:04;;;;;;;1.90;1.80;;;;;;;24.55;26.51;94424.84;5036163;28;20036;-83
2021/10/17 00:35:30;;;;;;;1.90;1.80;;;;;;;24.55;26.75;94432.81;5014532;28;20043;-83
2021/10/17 00:37:57;;;;;;;1.90;1.77;;;;;;;24.53;26.60;94435.75;5032434;28;20027;-83
2021/10/17 00:40:23;;;;;;;1.90;1.80;;;;;;;24.52;26.67;94438.69;5025663;28;20021;-83
2021/10/17 00:42:49;;;;;;;1.88;1.77;;;;;;;24.52;26.83;94438.69;5033905;28;20035;-83
2021/10/17 00:45:20;;;;;;;1.73;1.63;;;;;;;24.57;26.71;94430.66;5061284;28;20029;-83
2021/10/17 00:47:49;;;;;;;1.65;1.55;;;;;;;24.49;26.35;94429.41;5032465;28;20024;-83
2021/10/17 00:50:17;;;;;;;1.70;1.60;;;;;;;24.57;26.41;94431.44;5049794;28;20029;-83
2021/10/17 00:52:43;;;;;;;1.80;1.70;;;;;;;24.50;26.50;94424.88;5030637;28;20029;-83
2021/10/17 00:55:13;;;;;;;1.63;1.52;;;;;;;24.52;26.39;94426.22;5049446;28;20071;-83
2021/10/17 00:57:42;;;;;;;1.70;1.60;;;;;;;24.51;26.47;94431.78;5031798;28;20017;-83
2021/10/17 01:00:13;;;;;;;1.73;1.55;;;;;;;24.56;26.43;94421.91;5054847;28;20028;-83
2021/10/17 01:02:39;;;;;;;1.70;1.60;;;;;;;24.48;26.29;94416.38;5017241;28;20024;-83
2021/10/17 01:05:05;;;;;;;1.65;1.55;;;;;;;24.50;26.41;94423.03;5044261;28;20119;-83
2021/10/17 01:07:35;;;;;;;1.80;1.70;;;;;;;24.49;26.10;94415.31;5031851;28;20028;-83
2021/10/17 01:10:00;;;;;;;;;;;;;;;24.71;26.64;94420.13;5048525;28;20040;-83
2021/10/17 01:12:26;;;;;;;1.60;1.50;;;;;;;24.56;26.43;94419.25;5042849;28;19924;-83
2021/10/17 01:14:51;;;;;;;2.10;1.60;;;;;;;24.53;26.46;94409.16;5040025;28;20058;-83
2021/10/17 01:17:17;;;;;;;1.77;1.67;;;;;;;24.50;26.12;94415.03;5039497;28;20032;-83
2021/10/17 01:19:48;;;;;;;1.60;1.50;;;;;;;24.54;26.40;94412.63;5048518;28;20033;-83
2021/10/17 01:22:19;;;;;;;1.63;1.52;;;;;;;24.49;26.36;94410.78;5054006;28;20033;-83
2021/10/17 01:24:44;;;;;;;1.70;1.60;;;;;;;24.48;26.28;94405.75;5033878;28;20024;-83
2021/10/17 01:27:10;;;;;;;1.70;1.60;;;;;;;24.47;26.31;94404.97;5037706;28;20036;-83
2021/10/17 01:29:35;;;;;;;1.50;1.40;;;;;;;24.48;26.42;94409.19;5017386;28;20063;-83
2021/10/17 01:32:03;;;;;;;1.70;1.60;;;;;;;24.48;26.28;94405.75;5031109;28;20029;-83
2021/10/17 01:34:31;;;;;;;1.70;1.60;;;;;;;24.45;26.10;94407.13;5048383;28;20033;-83
2021/10/17 01:36:56;;;;;;;2.00;1.80;;;;;;;24.46;25.96;94408.69;5044183;28;20024;-83
2021/10/17 01:39:22;;;;;;;1.58;1.48;;;;;;;24.47;26.33;94409.50;5033526;28;20024;-83
2021/10/17 01:41:48;;;;;;;1.60;1.50;;;;;;;24.47;26.18;94409.50;5047242;28;20039;-83
2021/10/17 01:44:36;;;;;;;1.70;1.60;;;;;;;24.47;26.37;94404.19;5049568;28;20044;-83
2021/10/17 01:47:04;;;;;;;1.50;1.40;;;;;;;24.45;26.19;94401.81;5052035;28;20025;-83
2021/10/17 01:49:34;;;;;;;1.52;1.42;;;;;;;24.46;26.34;94403.38;5017505;28;20025;-83
2021/10/17 01:51:59;;;;;;;1.60;1.50;;;;;;;24.39;26.00;94389.66;5015989;28;20021;-83
2021/10/17 01:54:25;;;;;;;3.83;1.50;;;;;;;24.46;26.10;94400.72;5032841;28;20036;-83
2021/10/17 01:56:53;;;;;;;1.77;1.67;;;;;;;24.45;26.21;94409.78;5038142;28;20107;-83
2021/10/17 01:59:20;;;;;;;1.70;1.50;;;;;;;24.44;26.20;94405.53;5016545;28;20025;-83
2021/10/17 02:01:46;;;;;;;1.60;1.50;;;;;;;24.41;26.22;94403.47;5030816;28;20032;-83
2021/10/17 02:04:16;;;;;;;1.80;1.63;;;;;;;24.51;26.18;94406.00;5033985;28;20031;-83
2021/10/17 02:06:41;;;;;;;;;;;;;;;24.65;26.34;94410.63;5025858;28;20028;-83
2021/10/17 02:09:07;;;;;;;1.70;1.60;;;;;;;24.43;26.04;94398.66;5030812;28;19925;-83
2021/10/17 02:11:32;;;;;;;1.92;1.75;;;;;;;24.47;26.00;94404.97;5039456;28;20064;-83
2021/10/17 02:14:02;;;;;;;1.70;1.60;;;;;;;24.47;26.12;94412.16;5013933;28;20037;-83
2021/10/17 02:16:28;;;;;;;2.05;1.85;;;;;;;24.46;26.23;94421.19;5058489;28;20033;-83
2021/10/17 02:18:53;;;;;;;1.42;1.33;;;;;;;24.39;26.16;94409.06;5016485;28;20037;-83
2021/10/17 02:21:19;;;;;;;2.15;1.63;;;;;;;24.35;26.33;94413.34;5010194;28;20037;-83
2021/10/17 02:23:44;;;;;;;2.05;1.80;;;;;;;24.32;26.56;94399.84;5031448;28;20029;-83
2021/10/17 02:26:10;;;;;;;1.65;1.55;;;;;;;24.39;26.30;94416.25;5049985;28;20028;-83
2021/10/17 02:28:38;;;;;;;1.60;1.50;;;;;;;24.34;26.46;94405.66;5021451;28;20029;-83
2021/10/17 02:31:06;;;;;;;2.00;1.80;;;;;;;24.42;26.61;94418.31;5030543;28;20033;-83
2021/10/17 02:33:31;;;;;;;1.80;1.70;;;;;;;24.35;26.64;94409.88;5053863;28;20021;-83
2021/10/17 02:35:59;;;;;;;1.92;1.80;;;;;;;24.42;26.60;94418.31;5025567;28;20060;-83
2021/10/17 02:38:27;;;;;;;2.10;1.90;;;;;;;24.40;26.55;94413.28;5001179;28;20033;-83
2021/10/17 02:40:52;;;;;;;2.03;1.83;;;;;;;24.36;26.49;94408.81;5025880;28;20024;-83
2021/10/17 02:43:18;;;;;;;1.90;1.80;;;;;;;24.42;26.48;94417.53;5048686;28;20037;-83
2021/10/17 02:45:43;;;;;;;2.00;1.80;;;;;;;24.33;26.90;94396.09;5029642;28;20095;-83
2021/10/17 02:48:09;;;;;;;2.10;1.90;;;;;;;24.36;26.73;94398.19;5038870;28;20086;-83
2021/10/17 02:50:36;;;;;;;1.73;1.63;;;;;;;24.40;26.78;94401.88;5029825;28;20032;-83
2021/10/17 02:53:02;;;;;;;2.05;1.85;;;;;;;24.42;27.04;94406.91;5012554;28;20053;-83
2021/10/17 02:55:27;;;;;;;2.08;1.88;;;;;;;24.40;26.94;94407.97;5015954;28;20039;-83
2021/10/17 02:57:53;;;;;;;2.17;2.00;;;;;;;24.38;26.90;94401.34;5022453;28;20028;-83
2021/10/17 03:00:18;;;;;;;1.73;1.63;;;;;;;24.36;26.83;94400.84;5050894;28;20029;-83
2021/10/17 03:02:43;;;;;;;1.90;1.80;;;;;;;24.42;26.79;94415.66;5048311;28;20068;-83
2021/10/17 03:05:12;;;;;;;2.05;1.85;;;;;;;24.42;27.17;94422.84;5012200;28;20067;-83
2021/10/17 03:07:37;;;;;;;1.88;1.77;;;;;;;24.40;26.89;94415.16;5055484;28;20031;-83
2021/10/17 03:10:04;;;;;;;2.00;1.80;;;;;;;24.38;26.89;94415.44;5029909;28;20029;-83
2021/10/17 03:12:31;;;;;;;2.00;1.85;;;;;;;24.40;27.44;94420.47;5033037;28;20457;-83
2021/10/17 03:14:57;;;;;;;2.28;2.08;;;;;;;24.38;26.97;94415.44;5009695;28;20041;-83
2021/10/17 03:17:24;;;;;;;2.08;1.88;;;;;;;24.41;26.96;94422.06;5043526;28;20175;-83
2021/10/17 03:19:50;;;;;;;2.20;2.00;;;;;;;24.41;27.13;94416.75;5010908;28;20104;-83
2021/10/17 03:22:15;;;;;;;1.90;1.80;;;;;;;24.41;27.13;94419.41;5054741;28;20056;-83
2021/10/17 03:24:41;;;;;;;2.08;1.90;;;;;;;24.40;27.24;94413.28;5035379;28;20027;-83
2021/10/17 03:27:06;;;;;;;2.10;1.90;;;;;;;24.37;27.06;94408.53;5014864;28;20037;-83
2021/10/17 03:29:34;;;;;;;1.77;1.67;;;;;;;24.34;27.09;94405.66;5032808;28;20036;-83
2021/10/17 03:31:59;;;;;;;2.00;1.90;;;;;;;24.40;27.49;94404.53;5030251;28;20045;-83
2021/10/17 03:34:27;;;;;;;2.00;1.88;;;;;;;24.31;27.14;94398.25;5018749;28;20067;-83
2021/10/17 03:36:52;;;;;;;1.83;1.73;;;;;;;24.37;27.06;94413.06;5031463;28;20028;-83
2021/10/17 03:39:20;;;;;;;2.20;2.00;;;;;;;24.40;27.26;94415.16;5028662;28;20032;-83
2021/10/17 03:41:45;;;;;;;2.00;1.90;;;;;;;24.37;27.12;94413.06;5021448;28;20028;-83
2021/10/17 03:44:13;;;;;;;2.03;1.92;;;;;;;24.38;27.36;94418.09;5015398;28;20039;-83
2021/10/17 03:46:38;;;;;;;1.88;1.77;;;;;;;24.35;27.30;94418.69;5032926;28;20039;-81
2021/10/17 03:49:06;;;;;;;2.00;1.90;;;;;;;24.39;27.34;94422.34;5030082;28;20028;-83
2021/10/17 03:51:33;;;;;;;1.70;1.60;;;;;;;24.37;27.30;94427.16;5048216;28;20174;-83
2021/10/17 03:53:59;;;;;;;1.98;1.88;;;;;;;24.39;27.32;94424.22;5014273;28;20097;-83
2021/10/17 03:56:25;;;;;;;2.20;2.00;;;;;;;24.34;27.53;94422.38;5012252;28;20021;-83
2021/10/17 03:58:53;;;;;;;2.28;1.90;;;;;;;24.43;27.36;94425.22;5023112;28;20035;-83
2021/10/17 04:01:18;;;;;;;1.85;1.70;;;;;;;24.35;27.54;94423.19;5032918;28;20025;-83
2021/10/17 04:03:44;;;;;;;1.88;1.77;;;;;;;24.34;27.29;94416.28;5018120;28;20086;-82
2021/10/17 04:06:09;;;;;;;1.63;1.52;;;;;;;24.36;27.55;94424.78;5021347;28;20211;-81
2021/10/17 04:08:39;;;;;;;1.80;1.70;;;;;;;24.33;27.40;94420.81;5030969;28;20040;-82
2021/10/17 04:11:09;;;;;;;1.90;1.80;;;;;;;24.39;27.41;94424.22;5017827;28;20037;-82
2021/10/17 04:13:34;;;;;;;;;;;;;;;24.58;27.10;94418.97;5043649;28;20032;-82
2021/10/17 04:16:02;;;;;;;1.80;1.60;;;;;;;24.43;27.63;94419.91;5046679;28;20876;-82
2021/10/17 04:18:27;;;;;;;1.80;1.70;;;;;;;24.42;27.28;94420.19;5017208;28;20099;-82
2021/10/17 04:20:53;;;;;;;1.65;1.55;;;;;;;24.39;27.29;94419.69;5028671;28;20037;-82
2021/10/17 04:23:18;;;;;;;1.63;1.52;;;;;;;24.37;27.52;94415.75;5045929;28;20036;-83
2021/10/17 04:25:44;;;;;;;1.70;1.60;;;;;;;24.37;27.53;94415.75;5025212;28;20017;-83
2021/10/17 04:28:09;;;;;;;1.70;1.60;;;;;;;24.35;27.23;94418.69;5015695;28;20029;-82
2021/10/17 04:30:35;;;;;;;1.80;1.70;;;;;;;24.37;27.46;94423.72;5011269;28;20029;-83
2021/10/17 04:33:00;;;;;;;2.10;1.80;;;;;;;24.35;27.50;94417.84;5025408;28;20025;-83
2021/10/17 04:35:26;;;;;;;1.70;1.60;;;;;;;24.36;27.35;94425.56;5027461;28;20033;-83
2021/10/17 04:37:51;;;;;;;1.90;1.80;;;;;;;24.29;27.35;94413.69;5012096;28;20026;-83
2021/10/17 04:40:21;;;;;;;1.88;1.70;;;;;;;24.35;27.48;94425.84;5049951;28;20025;-83
2021/10/17 04:42:49;;;;;;;1.88;1.77;;;;;;;24.35;27.63;94423.19;5030762;28;20047;-83
2021/10/17 04:45:14;;;;;;;1.80;1.70;;;;;;;24.33;27.25;94417.34;5016988;28;20044;-83
2021/10/17 04:47:39;;;;;;;1.50;1.40;;;;;;;24.33;27.42;94423.47;5022746;28;20029;-83
2021/10/17 04:50:05;;;;;;;1.92;1.80;;;;;;;24.34;27.38;94419.72;5029340;28;20033;-83
2021/10/17 04:52:33;;;;;;;1.90;1.80;;;;;;;24.34;27.54;94421.59;5020158;28;20032;-83
2021/10/17 04:54:58;;;;;;;1.80;1.70;;;;;;;24.33;27.28;94423.47;5043231;28;20102;-83
2021/10/17 04:57:24;;;;;;;1.75;1.65;;;;;;;24.30;27.31;94418.72;5031290;28;20028;-83
2021/10/17 04:59:53;;;;;;;1.63;1.52;;;;;;;24.33;27.58;94420.00;5056929;28;20025;-83
2021/10/17 05:02:18;;;;;;;1.75;1.65;;;;;;;24.32;27.37;94423.75;5028835;28;20057;-83
2021/10/17 05:04:46;;;;;;;1.90;1.80;;;;;;;24.31;27.47;94422.97;5024974;28;20044;-83
2021/10/17 05:07:11;;;;;;;1.60;1.50;;;;;;;24.33;27.29;94430.63;5037791;28;20119;-83
2021/10/17 05:09:39;;;;;;;1.83;1.65;;;;;;;24.36;27.45;94430.09;5049323;28;20041;-83
2021/10/17 05:12:09;;;;;;;1.98;1.80;;;;;;;24.38;27.23;94433.25;5034731;28;20037;-83
2021/10/17 05:14:34;;;;;;;1.70;1.60;;;;;;;24.32;27.47;94429.84;5028557;28;20114;-83
2021/10/17 05:17:02;;;;;;;1.90;1.80;;;;;;;24.31;27.57;94430.94;5025433;28;20033;-83
2021/10/17 05:19:28;;;;;;;1.90;1.80;;;;;;;24.32;27.55;94437.03;5028620;28;20033;-83
2021/10/17 05:21:54;;;;;;;1.90;1.80;;;;;;;24.31;27.58;94432.78;5036511;28;20039;-83
2021/10/17 05:24:19;;;;;;;1.77;1.65;;;;;;;24.27;27.54;94429.91;5028125;28;20029;-83
2021/10/17 05:26:45;;;;;;;1.83;1.70;;;;;;;24.30;27.54;94436.53;5019143;28;20020;-83
2021/10/17 05:29:12;;;;;;;1.75;1.65;;;;;;;24.36;27.63;94440.72;5015103;28;20025;-83
2021/10/17 05:31:42;;;;;;;1.80;1.70;;;;;;;24.30;27.59;94439.97;5011968;28;20033;-83
2021/10/17 05:34:10;;;;;;;1.63;1.52;;;;;;;24.30;27.30;94436.53;5024899;28;20033;-83
2021/10/17 05:36:35;;;;;;;1.90;1.70;;;;;;;24.28;27.62;94441.34;5031765;28;20089;-83
2021/10/17 05:39:01;;;;;;;1.60;1.50;;;;;;;24.27;27.39;94434.44;5005498;28;20219;-83
2021/10/17 05:41:27;;;;;;;1.88;1.75;;;;;;;24.27;27.68;94434.44;5030680;28;20037;-83
2021/10/17 05:43:54;;;;;;;1.85;1.70;;;;;;;24.30;27.61;94436.53;5036863;28;20050;-83
2021/10/17 05:46:20;;;;;;;1.75;1.65;;;;;;;24.28;27.41;94431.50;5035082;28;20028;-83
2021/10/17 05:48:47;;;;;;;2.00;1.80;;;;;;;24.26;27.59;94433.66;5022378;28;20028;-83
2021/10/17 05:51:13;;;;;;;1.52;1.42;;;;;;;24.27;27.71;94431.78;5054792;28;20039;-83
2021/10/17 05:53:40;;;;;;;1.60;1.50;;;;;;;24.28;27.66;94428.84;5035943;28;20032;-83
2021/10/17 05:56:08;;;;;;;1.73;1.63;;;;;;;24.27;28.03;94432.56;5032486;28;20033;-83
2021/10/17 05:58:34;;;;;;;1.77;1.67;;;;;;;24.24;27.84;94433.16;5024719;28;20092;-83
2021/10/17 06:01:04;;;;;;;1.88;1.77;;;;;;;24.33;27.64;94433.28;5013372;28;20040;-83
2021/10/17 06:03:29;;;;;;;;;;;;;;;24.48;27.38;94440.31;5030188;28;20098;-83
2021/10/17 06:06:01;;;;;;;1.92;1.80;;;;;;;24.36;27.56;94436.19;5035724;28;19912;-83
2021/10/17 06:08:27;;;;;;;1.48;1.38;;;;;;;24.26;27.57;94431.00;5029473;28;20041;-83
2021/10/17 06:10:54;;;;;;;1.60;1.50;;;;;;;24.20;27.58;94432.91;5022657;28;20030;-83
2021/10/17 06:13:19;;;;;;;1.70;1.60;;;;;;;24.22;27.53;94435.28;5016962;28;20039;-83
2021/10/17 06:15:47;;;;;;;1.52;1.42;;;;;;;24.27;27.49;94442.41;5055419;28;20024;-83
2021/10/17 06:18:15;;;;;;;1.80;1.70;;;;;;;24.32;27.38;94445.03;5047843;28;20037;-83
2021/10/17 06:20:40;;;;;;;1.77;1.67;;;;;;;24.16;27.51;94433.75;5014059;28;20119;-83
2021/10/17 06:23:06;;;;;;;1.40;1.30;;;;;;;24.19;27.67;94441.16;5036744;28;20072;-83
2021/10/17 06:25:31;;;;;;;1.65;1.55;;;;;;;24.21;27.41;94439.00;5023873;28;20126;-83
2021/10/17 06:28:01;;;;;;;1.70;1.60;;;;;;;24.21;27.63;94444.31;5018045;28;20190;-82
2021/10/17 06:30:27;;;;;;;1.90;1.70;;;;;;;24.21;27.51;94444.31;5054939;28;20021;-83
2021/10/17 06:32:57;;;;;;;1.50;1.40;;;;;;;24.29;27.29;94450.88;5017160;28;20056;-83
2021/10/17 06:35:22;;;;;;;1.45;1.35;;;;;;;24.26;27.55;94448.81;5037141;28;20037;-83
2021/10/17 06:37:48;;;;;;;1.73;1.63;;;;;;;24.23;27.72;94452.03;5041386;28;20044;-83
2021/10/17 06:40:15;;;;;;;1.40;1.30;;;;;;;24.20;27.59;94448.84;5018555;28;20032;-83
2021/10/17 06:42:41;;;;;;;1.58;1.48;;;;;;;24.16;27.80;94442.53;5017584;28;20029;-83
2021/10/17 06:45:07;;;;;;;1.50;1.40;;;;;;;24.24;27.56;94449.09;5062312;28;20031;-83
2021/10/17 06:47:37;;;;;;;1.33;1.23;;;;;;;24.24;27.58;94445.63;5029095;28;20066;-83
2021/10/17 06:50:05;;;;;;;1.70;1.60;;;;;;;24.22;27.91;94453.09;5034075;28;20029;-83
2021/10/17 06:52:34;;;;;;;1.63;1.52;;;;;;;24.24;27.77;94453.59;5026788;28;20056;-83
2021/10/17 06:54:59;;;;;;;1.50;1.40;;;;;;;24.22;27.77;94445.94;5040206;28;20060;-83
2021/10/17 06:57:24;;;;;;;1.50;1.40;;;;;;;24.23;27.69;94449.38;5039667;28;20032;-83
2021/10/17 06:59:50;;;;;;;1.60;1.50;;;;;;;24.22;27.58;94445.13;5029885;28;20030;-83
2021/10/17 07:02:15;;;;;;;1.50;1.40;;;;;;;24.24;27.81;94442.97;5019015;28;20035;-83
2021/10/17 07:04:43;;;;;;;1.70;1.60;;;;;;;24.23;27.66;94441.41;5037737;28;20077;-83
2021/10/17 07:07:11;;;;;;;1.45;1.35;;;;;;;24.23;28.05;94442.19;5030449;28;20028;-83
2021/10/17 07:09:36;;;;;;;1.45;1.35;;;;;;;24.21;27.79;94441.66;5015104;28;20032;-83
2021/10/17 07:12:06;;;;;;;1.50;1.40;;;;;;;24.23;27.75;94444.06;5027089;28;20029;-83
2021/10/17 07:14:36;;;;;;;;;;;;;;;24.43;27.43;94451.81;5046633;28;20021;-83
2021/10/17 07:17:02;;;;;;;1.75;1.65;;;;;;;24.30;27.79;94457.81;5046265;28;19928;-83
2021/10/17 07:19:29;;;;;;;1.70;1.60;;;;;;;24.16;27.92;94437.22;5034619;28;20049;-83
2021/10/17 07:21:57;;;;;;;1.65;1.55;;;;;;;24.19;27.90;94457.88;5032112;28;20029;-83
2021/10/17 07:24:23;;;;;;;1.70;1.60;;;;;;;24.23;27.80;94457.34;5020100;28;20025;-83
2021/10/17 07:26:48;;;;;;;1.70;1.60;;;;;;;24.20;28.16;94470.13;5023266;28;20036;-83
2021/10/17 07:29:14;;;;;;;1.55;1.45;;;;;;;24.19;27.91;94460.53;5033137;28;20406;-83
2021/10/17 07:31:39;;;;;;;1.60;1.50;;;;;;;24.21;27.99;94465.59;5026938;28;20033;-83
2021/10/17 07:34:07;;;;;;;1.88;1.77;;;;;;;24.20;28.17;94466.69;5016503;28;20099;-83
2021/10/17 07:36:34;;;;;;;1.70;1.60;;;;;;;24.12;28.36;94454.81;5048758;28;20024;-83
2021/10/17 07:39:00;;;;;;;1.73;1.60;;;;;;;24.19;28.12;94463.22;5024403;28;20031;-83
2021/10/17 07:41:27;;;;;;;1.70;1.60;;;;;;;24.18;28.15;94463.50;5023118;28;20126;-83
2021/10/17 07:43:55;;;;;;;2.22;1.92;;;;;;;24.18;28.29;94463.50;5016151;28;20040;-83
2021/10/17 07:46:23;;;;;;;1.85;1.73;;;;;;;24.20;28.29;94464.81;5055884;28;20115;-83
2021/10/17 07:48:49;;;;;;;2.17;1.80;;;;;;;24.21;28.26;94468.25;5025875;28;20033;-83
2021/10/17 07:51:14;;;;;;;1.60;1.50;;;;;;;24.20;28.32;94466.69;5032787;28;20086;-83
2021/10/17 07:53:40;;;;;;;1.70;1.60;;;;;;;24.20;28.28;94461.38;5042850;28;20028;-83
2021/10/17 07:56:07;;;;;;;1.70;1.60;;;;;;;24.20;28.51;94467.47;5041558;28;20043;-83
2021/10/17 07:58:33;;;;;;;1.80;1.70;;;;;;;24.19;28.08;94471.19;5048672;28;20029;-83
2021/10/17 08:00:58;;;;;;;1.70;1.60;;;;;;;24.20;28.34;94477.31;5040513;28;20036;-83
2021/10/17 08:03:24;;;;;;;1.85;1.60;;;;;;;24.19;28.39;94473.03;5042640;28;20044;-83
2021/10/17 08:05:51;;;;;;;1.77;1.67;;;;;;;24.18;28.36;94476.78;5035052;28;20063;-83
2021/10/17 08:08:17;;;;;;;1.65;1.55;;;;;;;24.18;28.39;94477.56;5033527;28;20025;-83
2021/10/17 08:10:44;;;;;;;1.65;1.55;;;;;;;24.17;28.49;94481.28;5039654;28;20040;-83
2021/10/17 08:13:12;;;;;;;1.80;1.70;;;;;;;24.18;28.36;94485.56;5031634;28;20029;-83
2021/10/17 08:15:40;;;;;;;1.80;1.70;;;;;;;24.19;28.63;94481.81;5051470;28;20029;-83
2021/10/17 08:18:08;;;;;;;1.92;1.77;;;;;;;24.25;28.36;94487.06;5034159;28;20133;-83
2021/10/17 08:20:36;;;;;;;1.98;1.77;;;;;;;24.19;28.43;94486.34;5068801;28;20021;-83
2021/10/17 08:23:04;;;;;;;2.15;1.95;;;;;;;24.18;28.39;94488.22;5026877;28;20086;-83
2021/10/17 08:25:38;;;;;;;1.70;1.60;;;;;;;24.19;28.53;94494.31;5048359;28;20101;-83
2021/10/17 08:28:08;;;;;;;1.65;1.55;;;;;;;24.19;28.57;94495.09;5024592;28;20029;-83
2021/10/17 08:30:33;;;;;;;2.00;1.80;;;;;;;24.19;28.64;94495.09;5031725;28;20025;-83
2021/10/17 08:32:59;;;;;;;1.75;1.65;;;;;;;24.19;28.65;94495.09;5038888;28;20062;-83
2021/10/17 08:35:26;;;;;;;1.63;1.52;;;;;;;24.17;28.80;94493.78;5046870;28;20032;-83
2021/10/17 08:37:54;;;;;;;2.13;1.80;;;;;;;24.16;28.78;94495.66;5032368;28;20024;-83
2021/10/17 08:40:19;;;;;;;2.15;1.95;;;;;;;24.15;28.65;94496.72;5039211;28;20077;-83
2021/10/17 08:42:45;;;;;;;2.08;1.88;;;;;;;24.17;28.89;94496.44;5021720;28;20030;-83
2021/10/17 08:45:10;;;;;;;2.00;1.85;;;;;;;24.17;28.69;94501.75;5033272;28;20051;-83
2021/10/17 08:47:36;;;;;;;1.80;1.70;;;;;;;24.17;28.92;94502.56;5031926;28;20392;-83
2021/10/17 08:50:01;;;;;;;1.60;1.50;;;;;;;24.17;28.53;94505.22;5051624;28;20033;-83
2021/10/17 08:52:27;;;;;;;1.80;1.70;;;;;;;24.18;28.66;94501.50;5034888;28;20078;-83
2021/10/17 08:54:57;;;;;;;1.75;1.65;;;;;;;24.19;29.04;94504.94;5027713;28;20344;-83
2021/10/17 08:57:25;;;;;;;1.60;1.50;;;;;;;24.19;28.88;94499.63;5047019;28;20024;-83
2021/10/17 08:59:57;;;;;;;1.83;1.73;;;;;;;24.17;28.81;94497.25;5013388;28;20033;-83
2021/10/17 09:02:23;;;;;;;2.05;1.85;;;;;;;24.15;28.92;94499.38;5011346;28;20036;-83
2021/10/17 09:05:08;;;;;;;1.75;1.65;;;;;;;24.26;28.66;94494.00;5010799;28;20032;-83
2021/10/17 09:07:33;;;;;;;1.88;1.77;;;;;;;24.18;29.13;94504.16;5035933;28;20033;-83
2021/10/17 09:10:12;;;;;;;2.30;2.10;;;;;;;24.26;28.85;94509.94;5027621;28;20057;-83
2021/10/17 09:12:38;;;;;;;1.90;1.80;;;;;;;24.13;29.10;94504.19;5051097;28;20073;-83
2021/10/17 09:15:40;;;;;;;2.03;1.83;;;;;;;24.29;28.51;94509.34;5030154;28;20043;-83
2021/10/17 09:18:09;;;;;;;2.08;1.88;;;;;;;24.23;28.86;94516.59;5000698;28;20034;-83
2021/10/17 09:20:46;;;;;;;2.17;1.90;;;;;;;24.27;28.84;94509.63;4991732;28;20040;-83
2021/10/17 09:23:16;;;;;;;2.03;1.83;;;;;;;24.24;28.97;94509.41;5017149;28;20143;-83
2021/10/17 09:25:42;;;;;;;2.03;1.90;;;;;;;24.16;29.15;94513.44;5020489;28;20041;-83
2021/10/17 09:28:16;;;;;;;2.20;2.00;;;;;;;24.23;29.04;94505.94;4994079;28;20104;-83
2021/10/17 09:30:42;;;;;;;2.05;1.88;;;;;;;24.16;29.39;94510.78;5007048;28;20038;-83
2021/10/17 09:33:17;;;;;;;2.20;2.00;;;;;;;24.23;28.92;94500.63;4984988;28;20088;-83
2021/10/17 09:35:43;;;;;;;2.05;1.92;;;;;;;24.16;29.35;94497.50;5000963;28;20038;-83
2021/10/17 09:38:14;;;;;;;1.90;1.80;;;;;;;24.20;29.32;94502.00;5000275;28;20050;-82
2021/10/17 09:40:41;;;;;;;;;;;;;;;24.36;28.49;94494.66;4990529;28;20110;-83
2021/10/17 09:43:14;;;;;;;2.22;2.03;;;;;;;24.22;29.25;94493.75;5005950;28;19924;-83
2021/10/17 09:45:40;;;;;;;1.83;1.73;;;;;;;24.19;29.41;94496.97;5006061;28;20034;-83
2021/10/17 09:48:06;;;;;;;2.10;1.90;;;;;;;24.16;29.52;94495.66;5005342;28;20041;-83
2021/10/17 09:50:31;;;;;;;2.13;1.92;;;;;;;24.17;29.27;94501.75;4983796;28;20033;-83
2021/10/17 09:52:57;;;;;;;1.90;1.80;;;;;;;24.17;29.42;94494.56;5005874;28;20045;-83
2021/10/17 09:55:24;;;;;;;2.10;1.90;;;;;;;24.14;29.66;94487.19;5044482;28;20127;-83
2021/10/17 09:57:51;;;;;;;1.90;1.80;;;;;;;24.13;29.40;94487.47;5027721;28;20079;-83
2021/10/17 10:00:17;;;;;;;2.10;1.88;;;;;;;24.15;29.58;94487.97;5014976;28;20017;-83
2021/10/17 10:02:48;;;;;;;2.30;1.90;;;;;;;24.20;29.28;94485.28;5010600;28;20031;-83
2021/10/17 10:05:17;;;;;;;2.30;2.10;;;;;;;24.14;29.38;94487.19;5014589;28;20052;-83
2021/10/17 10:07:45;;;;;;;2.17;1.98;;;;;;;24.15;29.54;94485.31;5013066;28;20049;-83
2021/10/17 10:10:11;;;;;;;2.13;1.92;;;;;;;24.14;29.56;94481.88;5029995;28;20028;-83
2021/10/17 10:12:41;;;;;;;2.28;2.08;;;;;;;24.19;29.53;94483.69;5040128;28;20044;-83
2021/10/17 10:15:08;;;;;;;2.13;1.92;;;;;;;24.15;29.54;94480.00;5022420;28;20032;-83
2021/10/17 10:17:36;;;;;;;1.90;1.80;;;;;;;24.16;29.52;94495.66;5031297;28;20025;-83
2021/10/17 10:20:01;;;;;;;1.88;1.75;;;;;;;24.14;29.68;94486.38;5013977;28;20021;-83
2021/10/17 10:22:31;;;;;;;1.98;1.77;;;;;;;24.15;29.72;94483.44;5025183;28;20202;-83
2021/10/17 10:24:57;;;;;;;2.00;1.90;;;;;;;24.16;29.73;94477.06;5041835;28;20116;-83
2021/10/17 10:27:22;;;;;;;2.20;2.00;;;;;;;24.14;29.73;94479.22;5020768;28;20029;-83
2021/10/17 10:29:52;;;;;;;2.00;1.88;;;;;;;24.14;29.68;94481.88;5029491;28;20040;-83
2021/10/17 10:32:22;;;;;;;;;;;;;;;24.37;28.92;94487.50;5039082;28;20037;-83
2021/10/17 10:34:56;;;;;;;1.70;1.60;;;;;;;24.28;29.50;94486.53;5040312;28;19928;-83
2021/10/17 10:37:22;;;;;;;1.95;1.83;;;;;;;24.20;29.83;94486.06;5049738;28;20045;-83
2021/10/17 10:40:00;;;;;;;1.83;1.73;;;;;;;24.27;29.54;94483.06;5035318;28;20076;-83
2021/10/17 10:42:33;;;;;;;1.90;1.80;;;;;;;24.26;29.45;94491.34;5041321;28;20158;-83
2021/10/17 10:45:35;;;;;;;1.80;1.70;;;;;;;24.24;29.32;94482.81;5010967;28;20099;-83
2021/10/17 10:48:23;;;;;;;1.73;1.63;;;;;;;24.27;29.35;94487.59;5029157;28;20041;-83
2021/10/17 10:50:56;;;;;;;1.80;1.70;;;;;;;24.18;30.04;94488.22;5020113;28;20036;-83
2021/10/17 10:53:44;;;;;;;2.00;1.90;;;;;;;24.27;29.45;94484.94;5014807;28;20091;-83
2021/10/17 10:56:09;;;;;;;2.00;1.85;;;;;;;24.16;29.96;94493.00;5043857;28;20219;-83
2021/10/17 10:58:36;;;;;;;1.90;1.73;;;;;;;24.15;29.99;94487.97;5018108;28;20025;-83
2021/10/17 11:01:02;;;;;;;1.88;1.77;;;;;;;24.13;29.99;94484.81;5027526;28;20038;-83
2021/10/17 11:03:44;;;;;;;1.98;1.77;;;;;;;24.11;30.22;94486.94;5033864;28;20079;-83
2021/10/17 11:06:12;;;;;;;1.77;1.67;;;;;;;24.16;30.12;94490.34;5034652;28;20032;-83
2021/10/17 11:08:42;;;;;;;1.90;1.80;;;;;;;24.19;29.89;94483.69;5048452;28;20090;-83
2021/10/17 11:11:08;;;;;;;;;;;;;;;24.35;29.46;94486.97;5020349;28;21364;-83
2021/10/17 11:13:35;;;;;;;2.20;2.00;;;;;;;24.23;30.08;94483.91;5025120;28;20004;-83
2021/10/17 11:16:04;;;;;;;1.90;1.80;;;;;;;24.19;30.26;94495.09;5022110;28;20124;-83
2021/10/17 11:18:37;;;;;;;1.90;1.80;;;;;;;24.15;30.00;94475.47;5018583;28;20032;-83
2021/10/17 11:21:09;;;;;;;2.25;1.88;;;;;;;24.17;30.27;94494.56;5015897;28;20114;-83
2021/10/17 11:23:39;;;;;;;2.10;1.90;;;;;;;24.14;30.16;94486.38;5044047;28;20052;-83
2021/10/17 11:26:06;;;;;;;1.98;1.88;;;;;;;24.01;30.07;94466.59;5035735;28;20037;-83
2021/10/17 11:28:33;;;;;;;1.83;1.73;;;;;;;23.97;30.38;94460.22;5047604;28;20036;-83
2021/10/17 11:31:09;;;;;;;1.92;1.83;;;;;;;24.24;29.73;94482.81;5045472;28;20020;-83
2021/10/17 11:33:34;;;;;;;1.80;1.70;;;;;;;24.13;30.46;94485.59;5021162;28;20108;-83
2021/10/17 11:36:00;;;;;;;2.03;1.80;;;;;;;24.15;30.29;94487.97;5018418;28;20036;-83
2021/10/17 11:38:26;;;;;;;1.80;1.70;;;;;;;24.13;30.28;94480.28;5037673;28;20032;-83